createdAt,value
2017-01-11T00:01:02.574Z,13.17
2017-01-11T00:02:11.496Z,13.24
2017-01-11T00:03:20.446Z,13.28
2017-01-11T00:04:29.379Z,13.27
2017-01-11T00:05:38.307Z,13.12
2017-01-11T00:06:47.223Z,13.02
2017-01-11T00:07:56.149Z,12.84
2017-01-11T00:09:05.066Z,12.95
2017-01-11T00:10:14.015Z,13.05
2017-01-11T00:11:22.933Z,12.92
2017-01-11T00:12:31.871Z,12.8
2017-01-11T00:13:40.797Z,12.84
2017-01-11T00:14:49.720Z,12.81
2017-01-11T00:15:58.655Z,12.69
2017-01-11T00:17:07.611Z,12.8
2017-01-11T00:18:16.532Z,12.82
2017-01-11T00:19:25.467Z,12.88
2017-01-11T00:20:34.387Z,12.84
2017-01-11T00:21:43.301Z,12.82
2017-01-11T00:22:52.224Z,12.82
2017-01-11T00:24:01.158Z,12.82
2017-01-11T00:25:10.080Z,12.65
2017-01-11T00:26:19.012Z,12.6
2017-01-11T00:27:27.934Z,12.54
2017-01-11T00:28:36.849Z,12.69
2017-01-11T00:29:45.814Z,12.63
2017-01-11T00:30:54.741Z,12.66
2017-01-11T00:32:03.663Z,12.66
2017-01-11T00:33:12.594Z,12.66
2017-01-11T00:34:21.519Z,12.57
2017-01-11T00:35:30.436Z,12.26
2017-01-11T00:36:39.373Z,12.23
2017-01-11T00:37:48.303Z,12.23
2017-01-11T00:38:57.217Z,12.45
2017-01-11T00:40:06.149Z,12.54
2017-01-11T00:41:15.071Z,12.45
2017-01-11T00:42:24.018Z,12.29
2017-01-11T00:43:32.947Z,12.21
2017-01-11T00:44:41.872Z,12.27
2017-01-11T00:45:50.791Z,12.32
2017-01-11T00:46:59.718Z,12.21
2017-01-11T00:48:08.643Z,12.21
2017-01-11T00:49:17.561Z,12.18
2017-01-11T00:50:26.487Z,12.19
2017-01-11T00:51:35.413Z,12.18
2017-01-11T00:52:44.336Z,12.11
2017-01-11T00:53:53.250Z,11.93
2017-01-11T00:55:02.182Z,12.08
2017-01-11T00:56:11.107Z,11.96
2017-01-11T00:57:20.071Z,11.88
2017-01-11T00:58:29.002Z,11.89
2017-01-11T00:59:37.945Z,11.9
2017-01-11T01:00:46.867Z,11.88
2017-01-11T01:01:55.792Z,11.99
2017-01-11T01:03:04.719Z,11.88
2017-01-11T01:04:13.643Z,11.94
2017-01-11T01:05:22.577Z,11.86
2017-01-11T01:06:31.511Z,11.88
2017-01-11T01:07:40.433Z,11.99
2017-01-11T01:08:49.370Z,11.82
2017-01-11T01:09:58.284Z,11.8
2017-01-11T01:11:07.227Z,11.78
2017-01-11T01:12:16.148Z,11.68
2017-01-11T01:13:25.081Z,11.81
2017-01-11T01:14:34.006Z,11.82
2017-01-11T01:15:42.946Z,11.74
2017-01-11T01:16:51.866Z,11.78
2017-01-11T01:18:00.791Z,11.8
2017-01-11T01:19:09.718Z,11.59
2017-01-11T01:20:18.630Z,11.49
2017-01-11T01:21:27.557Z,11.48
2017-01-11T01:22:36.989Z,11.49
2017-01-11T01:23:45.925Z,11.44
2017-01-11T01:24:54.835Z,11.5
2017-01-11T01:26:03.775Z,11.48
2017-01-11T01:27:12.694Z,11.45
2017-01-11T01:28:21.618Z,11.59
2017-01-11T01:29:30.545Z,11.74
2017-01-11T01:30:39.482Z,11.48
2017-01-11T01:31:48.410Z,11.55
2017-01-11T01:32:57.332Z,11.24
2017-01-11T01:34:06.250Z,11.34
2017-01-11T01:35:15.172Z,11.37
2017-01-11T01:36:24.102Z,11.4
2017-01-11T01:37:33.033Z,11.4
2017-01-11T01:38:41.954Z,11.35
2017-01-11T01:39:50.885Z,11.35
2017-01-11T01:40:59.796Z,11.34
2017-01-11T01:42:08.720Z,11.32
2017-01-11T01:43:17.649Z,11.5
2017-01-11T01:44:26.582Z,11.32
2017-01-11T01:45:35.509Z,11.41
2017-01-11T01:46:44.433Z,11.41
2017-01-11T01:47:53.356Z,11.44
2017-01-11T01:49:02.286Z,11.44
2017-01-11T01:50:11.211Z,11.34
2017-01-11T01:51:20.129Z,11.3
2017-01-11T01:52:29.061Z,11.23
2017-01-11T01:53:38.931Z,11.24
2017-01-11T01:54:47.856Z,11.23
2017-01-11T01:55:56.768Z,11.34
2017-01-11T01:57:05.716Z,11.15
2017-01-11T01:58:14.649Z,11.31
2017-01-11T01:59:23.562Z,11.31
2017-01-11T02:00:32.470Z,11.37
2017-01-11T02:01:41.404Z,11.45
2017-01-11T02:02:50.322Z,11.37
2017-01-11T02:03:59.286Z,11.22
2017-01-11T02:05:08.206Z,11.32
2017-01-11T02:06:17.134Z,11.27
2017-01-11T02:07:26.045Z,11.24
2017-01-11T02:08:35.008Z,11.23
2017-01-11T02:09:43.918Z,11.07
2017-01-11T02:10:52.849Z,10.95
2017-01-11T02:12:01.776Z,11.04
2017-01-11T02:13:10.708Z,11.1
2017-01-11T02:14:19.635Z,11.08
2017-01-11T02:15:28.558Z,11.07
2017-01-11T02:16:37.478Z,10.97
2017-01-11T02:17:46.401Z,10.84
2017-01-11T02:18:55.337Z,10.79
2017-01-11T02:20:04.246Z,10.8
2017-01-11T02:21:13.171Z,11.07
2017-01-11T02:22:22.097Z,10.8
2017-01-11T02:23:31.024Z,10.77
2017-01-11T02:24:39.938Z,10.71
2017-01-11T02:25:48.859Z,10.65
2017-01-11T02:26:57.793Z,10.86
2017-01-11T02:28:06.724Z,10.83
2017-01-11T02:29:15.642Z,10.8
2017-01-11T02:30:24.590Z,10.89
2017-01-11T02:31:33.525Z,10.86
2017-01-11T02:32:42.456Z,10.68
2017-01-11T02:33:51.379Z,10.65
2017-01-11T02:35:00.298Z,10.59
2017-01-11T02:36:09.214Z,10.69
2017-01-11T02:37:18.147Z,10.77
2017-01-11T02:38:27.067Z,10.89
2017-01-11T02:39:35.999Z,10.98
2017-01-11T02:40:44.921Z,11.04
2017-01-11T02:41:53.848Z,10.87
2017-01-11T02:43:02.774Z,10.84
2017-01-11T02:44:11.778Z,11.01
2017-01-11T02:45:20.738Z,11.01
2017-01-11T02:46:29.660Z,11.04
2017-01-11T02:47:38.595Z,10.83
2017-01-11T02:48:47.548Z,10.98
2017-01-11T02:49:56.458Z,10.95
2017-01-11T02:51:05.386Z,10.89
2017-01-11T02:52:14.318Z,10.84
2017-01-11T02:53:23.266Z,10.69
2017-01-11T02:54:32.211Z,10.64
2017-01-11T02:55:41.125Z,10.61
2017-01-11T02:56:50.037Z,10.69
2017-01-11T02:57:58.961Z,10.69
2017-01-11T02:59:07.900Z,10.68
2017-01-11T03:00:16.812Z,10.74
2017-01-11T03:01:25.749Z,10.68
2017-01-11T03:02:34.665Z,10.59
2017-01-11T03:03:43.599Z,10.56
2017-01-11T03:04:52.542Z,10.47
2017-01-11T03:06:01.475Z,10.47
2017-01-11T03:07:10.388Z,10.59
2017-01-11T03:08:19.315Z,10.65
2017-01-11T03:09:28.239Z,10.62
2017-01-11T03:10:37.197Z,10.55
2017-01-11T03:11:46.115Z,10.43
2017-01-11T03:12:55.031Z,10.31
2017-01-11T03:14:03.967Z,10.45
2017-01-11T03:15:13.262Z,10.3
2017-01-11T03:16:22.206Z,10.38
2017-01-11T03:17:31.126Z,10.39
2017-01-11T03:18:40.044Z,10.47
2017-01-11T03:19:48.970Z,10.43
2017-01-11T03:20:57.889Z,10.45
2017-01-11T03:22:06.802Z,10.4
2017-01-11T03:23:15.730Z,10.38
2017-01-11T03:24:24.642Z,10.53
2017-01-11T03:25:33.557Z,10.45
2017-01-11T03:26:42.493Z,10.35
2017-01-11T03:27:51.425Z,10.45
2017-01-11T03:29:00.338Z,10.35
2017-01-11T03:30:09.264Z,10.35
2017-01-11T03:31:18.173Z,10.3
2017-01-11T03:32:27.093Z,10.43
2017-01-11T03:33:36.012Z,10.49
2017-01-11T03:34:44.934Z,10.55
2017-01-11T03:35:53.877Z,10.47
2017-01-11T03:37:02.815Z,10.28
2017-01-11T03:38:11.736Z,10.21
2017-01-11T03:39:20.656Z,10.2
2017-01-11T03:40:29.590Z,10.1
2017-01-11T03:41:38.509Z,10.06
2017-01-11T03:42:47.437Z,10.09
2017-01-11T03:43:56.359Z,10.17
2017-01-11T03:45:05.284Z,10.25
2017-01-11T03:46:14.198Z,10.24
2017-01-11T03:47:23.129Z,10.2
2017-01-11T03:48:32.056Z,10.21
2017-01-11T03:49:40.974Z,10.12
2017-01-11T03:50:49.896Z,10.21
2017-01-11T03:51:58.833Z,10.17
2017-01-11T03:53:07.757Z,10.21
2017-01-11T03:54:16.683Z,10.22
2017-01-11T03:55:25.613Z,10.24
2017-01-11T03:56:34.535Z,10.09
2017-01-11T03:57:43.444Z,10.05
2017-01-11T03:58:52.402Z,9.97
2017-01-11T04:00:01.347Z,10.1
2017-01-11T04:01:10.286Z,9.97
2017-01-11T04:02:19.208Z,9.95
2017-01-11T04:03:28.132Z,10
2017-01-11T04:04:37.064Z,10.07
2017-01-11T04:05:45.988Z,10.18
2017-01-11T04:06:54.908Z,10.22
2017-01-11T04:08:03.864Z,10.28
2017-01-11T04:09:12.803Z,10.2
2017-01-11T04:10:21.710Z,10.07
2017-01-11T04:11:30.640Z,9.97
2017-01-11T04:12:39.568Z,10.1
2017-01-11T04:13:48.503Z,9.89
2017-01-11T04:14:57.418Z,9.94
2017-01-11T04:16:06.345Z,9.88
2017-01-11T04:17:15.267Z,9.85
2017-01-11T04:18:24.184Z,9.95
2017-01-11T04:19:33.139Z,9.91
2017-01-11T04:20:42.068Z,9.95
2017-01-11T04:21:50.998Z,9.89
2017-01-11T04:22:59.922Z,9.88
2017-01-11T04:24:08.865Z,9.81
2017-01-11T04:25:17.784Z,9.79
2017-01-11T04:26:26.702Z,9.64
2017-01-11T04:27:35.628Z,9.59
2017-01-11T04:28:44.545Z,9.64
2017-01-11T04:29:53.476Z,9.59
2017-01-11T04:31:02.395Z,9.7
2017-01-11T04:32:11.317Z,9.66
2017-01-11T04:33:20.243Z,9.66
2017-01-11T04:34:29.156Z,9.76
2017-01-11T04:35:38.086Z,9.64
2017-01-11T04:36:47.000Z,9.66
2017-01-11T04:37:55.917Z,9.62
2017-01-11T04:39:04.840Z,9.74
2017-01-11T04:40:13.751Z,9.64
2017-01-11T04:41:22.680Z,9.77
2017-01-11T04:42:31.636Z,9.71
2017-01-11T04:43:40.584Z,9.62
2017-01-11T04:44:49.509Z,9.58
2017-01-11T04:45:58.448Z,9.73
2017-01-11T04:47:07.355Z,9.67
2017-01-11T04:48:16.274Z,9.59
2017-01-11T04:49:25.214Z,9.7
2017-01-11T04:50:34.126Z,9.79
2017-01-11T04:51:43.054Z,9.7
2017-01-11T04:52:51.972Z,9.81
2017-01-11T04:54:00.924Z,9.77
2017-01-11T04:55:09.842Z,9.71
2017-01-11T04:56:18.766Z,9.71
2017-01-11T04:57:27.714Z,9.7
2017-01-11T04:58:36.667Z,9.59
2017-01-11T04:59:45.589Z,9.55
2017-01-11T05:00:54.512Z,9.62
2017-01-11T05:02:03.431Z,9.69
2017-01-11T05:03:12.347Z,9.54
2017-01-11T05:04:21.273Z,9.67
2017-01-11T05:05:30.191Z,9.63
2017-01-11T05:06:39.146Z,9.63
2017-01-11T05:07:48.065Z,9.58
2017-01-11T05:08:56.979Z,9.67
2017-01-11T05:10:05.913Z,9.62
2017-01-11T05:11:14.866Z,9.73
2017-01-11T05:12:23.827Z,9.64
2017-01-11T05:13:32.757Z,9.54
2017-01-11T05:14:41.679Z,9.56
2017-01-11T05:15:50.588Z,9.58
2017-01-11T05:16:59.515Z,9.62
2017-01-11T05:18:08.448Z,9.62
2017-01-11T05:19:17.360Z,9.67
2017-01-11T05:20:26.291Z,9.59
2017-01-11T05:21:35.201Z,9.56
2017-01-11T05:22:44.130Z,9.55
2017-01-11T05:23:53.100Z,9.59
2017-01-11T05:25:02.014Z,9.63
2017-01-11T05:26:10.920Z,9.56
2017-01-11T05:27:19.842Z,9.71
2017-01-11T05:28:28.769Z,9.58
2017-01-11T05:29:37.687Z,9.56
2017-01-11T05:30:46.622Z,9.64
2017-01-11T05:31:55.548Z,9.56
2017-01-11T05:33:04.458Z,9.59
2017-01-11T05:34:13.403Z,9.62
2017-01-11T05:35:22.323Z,9.55
2017-01-11T05:36:31.259Z,9.62
2017-01-11T05:37:40.174Z,9.62
2017-01-11T05:38:49.095Z,9.7
2017-01-11T05:39:58.016Z,9.62
2017-01-11T05:41:06.928Z,9.56
2017-01-11T05:42:15.873Z,9.49
2017-01-11T05:43:24.795Z,9.48
2017-01-11T05:44:33.714Z,9.48
2017-01-11T05:45:42.627Z,9.44
2017-01-11T05:46:51.550Z,9.38
2017-01-11T05:48:00.458Z,9.52
2017-01-11T05:49:09.394Z,9.58
2017-01-11T05:50:18.307Z,9.59
2017-01-11T05:51:27.250Z,9.58
2017-01-11T05:52:36.173Z,9.62
2017-01-11T05:53:45.104Z,9.54
2017-01-11T05:54:54.018Z,9.33
2017-01-11T05:56:02.936Z,9.48
2017-01-11T05:57:11.861Z,9.52
2017-01-11T05:58:20.784Z,9.54
2017-01-11T05:59:29.714Z,9.54
2017-01-11T06:00:38.630Z,9.46
2017-01-11T06:01:47.566Z,9.48
2017-01-11T06:02:56.522Z,9.54
2017-01-11T06:04:05.439Z,9.3
2017-01-11T06:05:14.363Z,9.71
2017-01-11T06:06:23.295Z,10.24
2017-01-11T06:07:32.214Z,10.62
2017-01-11T06:08:41.155Z,10.84
2017-01-11T06:09:50.075Z,10.98
2017-01-11T06:10:59.019Z,11.12
2017-01-11T06:12:07.952Z,11.15
2017-01-11T06:13:16.869Z,11.34
2017-01-11T06:14:25.783Z,11.42
2017-01-11T06:15:34.714Z,11.6
2017-01-11T06:16:43.635Z,11.86
2017-01-11T06:17:52.565Z,11.88
2017-01-11T06:19:01.488Z,11.81
2017-01-11T06:20:10.418Z,11.74
2017-01-11T06:21:19.343Z,11.8
2017-01-11T06:22:28.253Z,11.99
2017-01-11T06:23:37.184Z,12.04
2017-01-11T06:24:46.133Z,12.05
2017-01-11T06:25:55.052Z,12.14
2017-01-11T06:27:03.967Z,12.14
2017-01-11T06:28:12.879Z,12.18
2017-01-11T06:29:21.805Z,12.3
2017-01-11T06:30:30.729Z,12.33
2017-01-11T06:31:39.660Z,12.45
2017-01-11T06:32:48.574Z,12.45
2017-01-11T06:33:57.506Z,12.6
2017-01-11T06:35:06.427Z,12.6
2017-01-11T06:36:15.349Z,12.69
2017-01-11T06:37:24.271Z,12.72
2017-01-11T06:38:33.199Z,12.72
2017-01-11T06:39:42.142Z,12.84
2017-01-11T06:40:51.060Z,12.9
2017-01-11T06:41:59.987Z,12.92
2017-01-11T06:43:08.914Z,12.94
2017-01-11T06:44:17.843Z,13.05
2017-01-11T06:45:26.762Z,13.07
2017-01-11T06:46:35.697Z,13.09
2017-01-11T06:47:44.619Z,13.17
2017-01-11T06:48:53.553Z,13.28
2017-01-11T06:50:02.474Z,13.28
2017-01-11T06:51:11.395Z,13.32
2017-01-11T06:52:20.851Z,13.36
2017-01-11T06:53:29.771Z,13.43
2017-01-11T06:54:38.720Z,13.4
2017-01-11T06:55:47.642Z,13.39
2017-01-11T06:56:56.575Z,13.51
2017-01-11T06:58:05.505Z,13.5
2017-01-11T06:59:14.421Z,13.59
2017-01-11T07:00:23.337Z,13.62
2017-01-11T07:01:32.259Z,13.77
2017-01-11T07:02:41.187Z,13.74
2017-01-11T07:03:50.120Z,13.73
2017-01-11T07:04:59.049Z,13.74
2017-01-11T07:06:07.974Z,13.81
2017-01-11T07:07:16.900Z,13.91
2017-01-11T07:08:25.836Z,13.91
2017-01-11T07:09:34.753Z,13.95
2017-01-11T07:10:43.709Z,13.95
2017-01-11T07:11:52.630Z,14.01
2017-01-11T07:13:01.550Z,14.02
2017-01-11T07:14:10.519Z,14.06
2017-01-11T07:15:19.470Z,14.05
2017-01-11T07:16:28.389Z,13.97
2017-01-11T07:17:37.638Z,14.1
2017-01-11T07:18:47.114Z,14.04
2017-01-11T07:19:56.166Z,14.13
2017-01-11T07:21:05.102Z,14.05
2017-01-11T07:22:14.019Z,14.19
2017-01-11T07:23:23.346Z,14.22
2017-01-11T07:24:32.286Z,14.22
2017-01-11T07:25:41.214Z,14.44
2017-01-11T07:26:50.145Z,14.67
2017-01-11T07:27:59.078Z,14.87
2017-01-11T07:29:08.010Z,15.04
2017-01-11T07:30:16.933Z,15.15
2017-01-11T07:31:25.899Z,15.28
2017-01-11T07:32:35.564Z,15.52
2017-01-11T07:33:44.488Z,15.79
2017-01-11T07:34:53.410Z,16.01
2017-01-11T07:36:02.428Z,16.25
2017-01-11T07:37:11.356Z,16.23
2017-01-11T07:38:20.268Z,16.53
2017-01-11T07:39:29.214Z,16.47
2017-01-11T07:40:38.136Z,16.66
2017-01-11T07:41:47.413Z,16.81
2017-01-11T07:42:56.346Z,17.1
2017-01-11T07:44:05.445Z,16.96
2017-01-11T07:45:14.857Z,17.08
2017-01-11T07:46:23.793Z,16.93
2017-01-11T07:47:32.709Z,17.17
2017-01-11T07:48:41.644Z,17.33
2017-01-11T07:49:50.602Z,17.39
2017-01-11T07:50:59.510Z,17.53
2017-01-11T07:52:08.455Z,17.64
2017-01-11T07:53:17.389Z,17.73
2017-01-11T07:54:26.313Z,17.82
2017-01-11T07:55:35.248Z,17.95
2017-01-11T07:56:44.202Z,17.92
2017-01-11T07:57:53.127Z,17.98
2017-01-11T07:59:02.043Z,18.09
2017-01-11T08:00:10.964Z,18.28
2017-01-11T08:01:19.890Z,18.31
2017-01-11T08:02:28.830Z,18.46
2017-01-11T08:03:37.761Z,18.5
2017-01-11T08:04:46.682Z,18.54
2017-01-11T08:05:55.930Z,18.87
2017-01-11T08:07:06.302Z,18.94
2017-01-11T08:08:15.238Z,18.91
2017-01-11T08:09:24.164Z,19.01
2017-01-11T08:10:33.110Z,19.21
2017-01-11T08:11:42.031Z,19.09
2017-01-11T08:12:50.967Z,18.87
2017-01-11T08:13:59.900Z,18.87
2017-01-11T08:15:08.856Z,19.02
2017-01-11T08:16:17.784Z,18.98
2017-01-11T08:17:26.725Z,19.05
2017-01-11T08:18:35.647Z,19.24
2017-01-11T08:19:44.568Z,19.27
2017-01-11T08:20:53.505Z,19.43
2017-01-11T08:22:02.441Z,19.55
2017-01-11T08:23:11.359Z,19.45
2017-01-11T08:24:20.303Z,19.55
2017-01-11T08:25:29.224Z,19.6
2017-01-11T08:26:38.154Z,19.65
2017-01-11T08:27:47.082Z,19.79
2017-01-11T08:28:56.017Z,19.9
2017-01-11T08:30:04.948Z,19.95
2017-01-11T08:31:13.890Z,20.02
2017-01-11T08:32:22.810Z,19.92
2017-01-11T08:33:31.748Z,19.65
2017-01-11T08:34:40.704Z,19.51
2017-01-11T08:35:49.641Z,19.25
2017-01-11T08:36:58.581Z,19.21
2017-01-11T08:38:07.520Z,19.05
2017-01-11T08:39:16.440Z,19.1
2017-01-11T08:40:25.361Z,18.97
2017-01-11T08:41:34.287Z,18.94
2017-01-11T08:42:43.225Z,18.86
2017-01-11T08:43:52.141Z,18.76
2017-01-11T08:45:01.366Z,18.84
2017-01-11T08:46:12.882Z,18.68
2017-01-11T08:47:22.297Z,18.71
2017-01-11T08:48:31.228Z,18.69
2017-01-11T08:49:40.197Z,18.66
2017-01-11T08:50:49.123Z,18.59
2017-01-11T08:51:58.230Z,18.65
2017-01-11T08:53:07.487Z,18.69
2017-01-11T08:54:16.414Z,18.49
2017-01-11T08:55:27.848Z,18.54
2017-01-11T08:56:37.330Z,18.58
2017-01-11T08:57:46.282Z,18.64
2017-01-11T08:58:55.263Z,18.69
2017-01-11T09:00:04.197Z,18.72
2017-01-11T09:01:13.129Z,18.68
2017-01-11T09:02:22.055Z,18.66
2017-01-11T09:03:30.996Z,18.69
2017-01-11T09:04:39.924Z,18.69
2017-01-11T09:05:48.851Z,18.66
2017-01-11T09:06:57.793Z,18.64
2017-01-11T09:08:06.745Z,18.76
2017-01-11T09:09:15.683Z,18.22
2017-01-11T09:10:24.621Z,16.53
2017-01-11T09:11:33.547Z,15.61
2017-01-11T09:12:42.474Z,14.63
2017-01-11T09:13:51.403Z,14.22
2017-01-11T09:15:00.329Z,13.73
2017-01-11T09:16:09.305Z,14.23
2017-01-11T09:17:18.247Z,15.46
2017-01-11T09:18:27.186Z,16.56
2017-01-11T09:19:36.117Z,17.13
2017-01-11T09:20:45.073Z,17.57
2017-01-11T09:21:53.998Z,17.98
2017-01-11T09:23:02.926Z,18.24
2017-01-11T09:24:11.861Z,18.46
2017-01-11T09:25:20.786Z,18.57
2017-01-11T09:26:29.737Z,19.02
2017-01-11T09:27:38.673Z,19.24
2017-01-11T09:28:47.616Z,19.43
2017-01-11T09:29:56.535Z,19.61
2017-01-11T09:31:05.476Z,19.79
2017-01-11T09:32:14.394Z,19.75
2017-01-11T09:33:23.344Z,19.5
2017-01-11T09:34:32.301Z,19.32
2017-01-11T09:35:41.242Z,19.24
2017-01-11T09:36:50.416Z,19.22
2017-01-11T09:37:59.352Z,19.3
2017-01-11T09:39:08.273Z,19.3
2017-01-11T09:40:17.206Z,19.33
2017-01-11T09:41:26.129Z,19.37
2017-01-11T09:42:35.072Z,19.36
2017-01-11T09:43:44.000Z,19.53
2017-01-11T09:44:52.940Z,19.55
2017-01-11T09:46:01.874Z,19.57
2017-01-11T09:47:10.795Z,19.61
2017-01-11T09:48:19.747Z,19.73
2017-01-11T09:49:28.685Z,20
2017-01-11T09:50:37.602Z,20.1
2017-01-11T09:51:46.528Z,20.1
2017-01-11T09:52:55.459Z,20
2017-01-11T09:54:04.391Z,19.95
2017-01-11T09:55:13.323Z,20.04
2017-01-11T09:56:22.257Z,20.09
2017-01-11T09:57:31.172Z,20.12
2017-01-11T09:58:40.102Z,20.15
2017-01-11T09:59:49.039Z,20.37
2017-01-11T10:00:58.117Z,20.3
2017-01-11T10:02:07.074Z,20.19
2017-01-11T10:03:16.147Z,20.12
2017-01-11T10:04:25.116Z,20.12
2017-01-11T10:05:34.052Z,20.2
2017-01-11T10:06:43.003Z,20.13
2017-01-11T10:07:51.946Z,20.16
2017-01-11T10:09:00.891Z,20.25
2017-01-11T10:10:09.852Z,20.32
2017-01-11T10:11:18.779Z,20.24
2017-01-11T10:12:27.720Z,20.06
2017-01-11T10:13:36.669Z,20.01
2017-01-11T10:14:45.604Z,19.95
2017-01-11T10:15:54.574Z,19.9
2017-01-11T10:17:03.508Z,19.8
2017-01-11T10:18:12.437Z,19.85
2017-01-11T10:19:21.497Z,19.91
2017-01-11T10:20:30.445Z,19.85
2017-01-11T10:21:39.410Z,19.88
2017-01-11T10:22:48.344Z,19.92
2017-01-11T10:23:57.276Z,19.88
2017-01-11T10:25:06.206Z,19.8
2017-01-11T10:26:15.141Z,19.76
2017-01-11T10:27:24.064Z,19.91
2017-01-11T10:28:33.014Z,19.9
2017-01-11T10:29:41.936Z,19.8
2017-01-11T10:30:50.886Z,20
2017-01-11T10:31:59.811Z,19.91
2017-01-11T10:33:08.840Z,19.87
2017-01-11T10:34:17.755Z,19.9
2017-01-11T10:35:26.686Z,19.88
2017-01-11T10:36:35.612Z,19.79
2017-01-11T10:37:44.552Z,19.76
2017-01-11T10:38:53.498Z,19.87
2017-01-11T10:40:02.461Z,19.9
2017-01-11T10:41:11.399Z,19.85
2017-01-11T10:42:20.326Z,19.8
2017-01-11T10:43:29.259Z,19.9
2017-01-11T10:44:38.200Z,19.94
2017-01-11T10:45:47.140Z,19.82
2017-01-11T10:46:56.067Z,19.76
2017-01-11T10:48:04.991Z,19.77
2017-01-11T10:49:13.927Z,19.87
2017-01-11T10:50:22.860Z,19.82
2017-01-11T10:51:32.066Z,19.77
2017-01-11T10:52:41.027Z,19.87
2017-01-11T10:53:49.972Z,19.9
2017-01-11T10:54:58.898Z,19.87
2017-01-11T10:56:07.825Z,19.92
2017-01-11T10:57:16.786Z,19.9
2017-01-11T10:58:25.714Z,19.92
2017-01-11T10:59:34.651Z,19.91
2017-01-11T11:00:43.613Z,19.91
2017-01-11T11:01:52.557Z,19.87
2017-01-11T11:03:01.485Z,19.8
2017-01-11T11:04:10.606Z,19.85
2017-01-11T11:05:19.538Z,19.9
2017-01-11T11:06:28.617Z,19.79
2017-01-11T11:07:37.649Z,19.82
2017-01-11T11:08:46.580Z,19.91
2017-01-11T11:09:55.505Z,19.83
2017-01-11T11:11:04.440Z,19.73
2017-01-11T11:12:13.366Z,19.77
2017-01-11T11:13:22.308Z,19.76
2017-01-11T11:14:31.272Z,19.72
2017-01-11T11:15:40.192Z,19.75
2017-01-11T11:16:49.120Z,19.73
2017-01-11T11:17:58.055Z,19.72
2017-01-11T11:19:07.000Z,19.7
2017-01-11T11:20:15.925Z,19.77
2017-01-11T11:21:24.885Z,19.73
2017-01-11T11:22:33.827Z,19.69
2017-01-11T11:23:42.897Z,19.69
2017-01-11T11:24:51.836Z,19.83
2017-01-11T11:26:00.773Z,19.88
2017-01-11T11:27:09.697Z,19.76
2017-01-11T11:28:18.631Z,19.82
2017-01-11T11:29:27.557Z,19.92
2017-01-11T11:30:36.475Z,19.92
2017-01-11T11:31:45.400Z,20.07
2017-01-11T11:32:54.345Z,20.12
2017-01-11T11:34:03.274Z,20.04
2017-01-11T11:35:12.217Z,20
2017-01-11T11:36:21.132Z,19.98
2017-01-11T11:37:30.053Z,19.94
2017-01-11T11:38:38.990Z,19.98
2017-01-11T11:39:47.934Z,19.87
2017-01-11T11:40:56.858Z,19.92
2017-01-11T11:42:05.790Z,20.02
2017-01-11T11:43:14.723Z,20
2017-01-11T11:44:23.644Z,19.97
2017-01-11T11:45:32.754Z,19.9
2017-01-11T11:46:41.691Z,19.88
2017-01-11T11:47:50.610Z,19.92
2017-01-11T11:48:59.542Z,19.83
2017-01-11T11:50:08.481Z,19.85
2017-01-11T11:51:17.425Z,19.88
2017-01-11T11:52:26.363Z,19.88
2017-01-11T11:53:36.102Z,19.85
2017-01-11T11:54:46.794Z,19.8
2017-01-11T11:55:55.724Z,19.87
2017-01-11T11:57:04.670Z,19.91
2017-01-11T11:58:13.600Z,19.87
2017-01-11T11:59:22.529Z,19.87
2017-01-11T12:00:31.457Z,19.9
2017-01-11T12:01:40.387Z,19.72
2017-01-11T12:02:51.784Z,19.73
2017-01-11T18:30:20.840Z,20.31
2017-01-11T18:31:29.766Z,20.28
2017-01-11T18:32:39.485Z,20.24
2017-01-11T18:33:49.203Z,20.13
2017-01-11T18:34:58.173Z,20.1
2017-01-11T18:36:07.110Z,20
2017-01-11T18:37:16.035Z,19.97
2017-01-11T18:38:24.965Z,19.94
2017-01-11T18:39:33.887Z,19.91
2017-01-11T18:40:42.821Z,19.92
2017-01-11T18:41:51.854Z,19.97
2017-01-11T18:43:01.355Z,19.94
2017-01-11T18:44:10.466Z,20
2017-01-11T18:45:20.446Z,19.85
2017-01-11T18:46:29.922Z,19.9
2017-01-11T18:47:39.149Z,19.88
2017-01-11T18:48:48.089Z,20.04
2017-01-11T18:49:57.019Z,20
2017-01-11T18:51:05.966Z,19.95
2017-01-11T18:52:14.890Z,19.98
2017-01-11T18:53:23.822Z,19.91
2017-01-11T18:54:32.756Z,19.92
2017-01-11T18:55:41.682Z,20
2017-01-11T18:56:50.913Z,19.94
2017-01-11T18:57:59.840Z,20
2017-01-11T18:59:08.771Z,20.07
2017-01-11T19:00:17.711Z,20.06
2017-01-11T19:01:26.647Z,20.06
2017-01-11T19:02:35.621Z,20.07
2017-01-11T19:03:44.582Z,20.07
2017-01-11T19:04:53.511Z,20.09
2017-01-11T19:06:02.442Z,20.17
2017-01-11T19:07:11.404Z,20.12
2017-01-11T19:08:20.628Z,20.15
2017-01-11T19:09:30.365Z,20.17
2017-01-11T19:10:41.128Z,20.13
2017-01-11T19:11:50.424Z,20.13
2017-01-11T19:13:00.207Z,20.12
2017-01-11T19:14:09.405Z,20.15
2017-01-11T19:15:18.689Z,20.17
2017-01-11T19:16:27.655Z,20.27
2017-01-11T19:17:37.501Z,20.12
2017-01-11T19:18:46.904Z,20.12
2017-01-11T19:19:56.747Z,20.27
2017-01-11T19:21:06.851Z,20.25
2017-01-11T19:22:16.535Z,20.27
2017-01-11T19:23:25.508Z,20.32
2017-01-11T19:24:34.533Z,20.27
2017-01-11T19:25:43.615Z,20.32
2017-01-11T19:26:54.820Z,20.3
2017-01-11T19:28:05.507Z,20.31
2017-01-11T19:29:15.017Z,20.32
2017-01-11T19:30:24.085Z,20.46
2017-01-11T19:31:33.071Z,20.41
2017-01-11T19:32:42.048Z,20.43
2017-01-11T19:33:51.031Z,20.41
2017-01-11T19:35:00.016Z,20.46
2017-01-11T19:36:09.075Z,20.43
2017-01-11T19:37:18.022Z,20.51
2017-01-11T19:38:26.985Z,20.47
2017-01-11T19:39:35.936Z,20.56
2017-01-11T19:40:44.936Z,20.5
2017-01-11T19:41:53.909Z,20.48
2017-01-11T19:43:02.886Z,20.47
2017-01-11T19:44:11.896Z,20.47
2017-01-11T19:45:20.938Z,20.53
2017-01-11T19:46:29.903Z,20.51
2017-01-11T19:47:38.864Z,20.54
2017-01-11T19:48:48.128Z,20.5
2017-01-11T19:49:57.232Z,20.51
2017-01-11T19:51:06.334Z,20.51
2017-01-11T19:52:15.371Z,20.51
2017-01-11T19:53:24.620Z,20.5
2017-01-11T19:54:33.581Z,20.5
2017-01-11T19:55:42.683Z,20.47
2017-01-11T19:56:51.659Z,20.51
2017-01-11T19:58:01.745Z,20.56
2017-01-11T19:59:11.242Z,20.56
2017-01-11T20:00:20.232Z,20.54
2017-01-11T20:01:29.677Z,20.56
2017-01-11T20:02:38.854Z,20.54
2017-01-11T20:03:47.868Z,20.6
2017-01-11T20:04:57.245Z,20.6
2017-01-11T20:06:06.219Z,20.58
2017-01-11T20:07:15.210Z,20.62
2017-01-11T20:08:24.530Z,20.63
2017-01-11T20:09:34.132Z,20.6
2017-01-11T20:10:43.219Z,20.72
2017-01-11T20:11:52.381Z,20.66
2017-01-11T20:13:01.391Z,20.71
2017-01-11T20:14:10.598Z,20.71
2017-01-11T20:15:19.637Z,20.72
2017-01-11T20:16:28.578Z,20.75
2017-01-11T20:17:37.603Z,20.69
2017-01-11T20:18:46.602Z,20.72
2017-01-11T20:19:55.601Z,20.68
2017-01-11T20:21:04.568Z,20.69
2017-01-11T20:22:13.549Z,20.72
2017-01-11T20:23:22.534Z,20.76
2017-01-11T20:24:31.486Z,20.72
2017-01-11T20:25:40.483Z,20.76
2017-01-11T20:26:49.429Z,20.75
2017-01-11T20:27:58.401Z,20.75
2017-01-11T20:29:07.622Z,20.79
2017-01-11T20:30:16.585Z,20.78
2017-01-11T20:31:25.722Z,20.79
2017-01-11T20:32:34.829Z,20.78
2017-01-11T20:33:43.865Z,20.81
2017-01-11T20:34:53.095Z,20.75
2017-01-11T20:36:02.814Z,20.71
2017-01-11T20:37:11.804Z,20.83
2017-01-11T20:38:21.294Z,20.81
2017-01-11T20:39:30.422Z,20.87
2017-01-11T20:40:40.096Z,20.97
2017-01-11T20:41:49.587Z,20.88
2017-01-11T20:42:58.657Z,20.99
2017-01-11T20:44:07.596Z,21.06
2017-01-11T20:45:16.676Z,21.06
2017-01-11T20:46:25.645Z,21.05
2017-01-11T20:47:35.276Z,20.95
2017-01-11T20:48:45.455Z,20.91
2017-01-11T20:49:58.794Z,20.9
2017-01-11T20:51:12.383Z,21.01
2017-01-11T20:52:21.681Z,20.94
2017-01-11T20:53:32.259Z,21.02
2017-01-11T20:54:42.834Z,20.95
2017-01-11T20:55:52.116Z,21.05
2017-01-11T20:57:01.577Z,20.91
2017-01-11T20:58:10.778Z,20.97
2017-01-11T20:59:20.336Z,20.94
2017-01-11T21:00:30.323Z,20.95
2017-01-11T21:01:39.630Z,20.95
2017-01-11T21:02:49.077Z,21.08
2017-01-11T21:03:58.973Z,20.95
2017-01-11T21:05:08.338Z,21.13
2017-01-11T21:06:17.777Z,20.99
2017-01-11T21:07:26.933Z,20.95
2017-01-11T21:08:36.848Z,21.06
2017-01-11T21:09:46.846Z,21.02
2017-01-11T21:10:56.496Z,21.12
2017-01-11T21:12:06.224Z,21.08
2017-01-11T21:13:15.554Z,21.17
2017-01-11T21:14:25.496Z,21.15
2017-01-11T21:15:35.496Z,21.09
2017-01-11T21:16:45.461Z,21.17
2017-01-11T21:17:54.643Z,21.13
2017-01-11T21:19:04.631Z,21.06
2017-01-11T21:20:14.815Z,21.08
2017-01-11T21:21:24.342Z,21.15
2017-01-11T21:22:34.351Z,21.18
2017-01-11T21:23:43.710Z,21.15